MDW weather

Chicago Midway International Airport
Chicago, Illinois, United States

Public forecast

Using degrees Fahrenheit for public forecast. Weather courtesy of forecast.io.

METAR (pilot weather report)

Retrieved 2019/04/23 10:16 UTC (8 minutes ago):

KMDW 231016Z 28011G21KT 6SM -DZ BR OVC009 14/13 A2987 RMK AO2 DZB12 P0000 T01440128

TAF (pilot weather forecast)

Retrieved 2019/04/23 06:22 UTC (4 hours ago):

TAF KMDW 230520Z 2306/2412 22014G24KT P6SM OVC080 FM230830 25012G20KT P6SM OVC010 FM231000 28013G21KT P6SM OVC008 FM231200 01012G20KT P6SM OVC008 FM231500 36010G15KT P6SM OVC015 FM232100 03010KT P6SM FEW025 SCT150 FM240100 04006KT P6SM SKC